< < Back
Terminal Aerodrome Forecast


Current Version              Previous Versions:   1  2  3  4  5  6  7  8  9  

Terminal Aerodrome Forecast

767
FTUS42 KILM 251400 AAA
TAFILM
TAF AMD
KILM 251403Z 2514/2612 05006KT P6SM OVC004
      TEMPO 2514/2516 SCT008
     FM251600 34005KT P6SM FEW025 SCT050 SCT100
     FM251800 13006KT P6SM VCTS BKN050CB
     FM260000 VRB02KT P6SM SCT040 SCT100
     FM260800 VRB01KT 4SM BR FEW020 BKN060=

Latest METAR

162
SAUS70 KWBC 251800 RRB
MTRILM
METAR KILM 251753Z VRB05KT 10SM BKN017 BKN070 27/22 A3004 RMK AO2 SLP171
T02670222 10267 20222 58005


USA.gov is the U.S. government's official web portal to all federal, state and local government web resources and services.